Time;durP1;ratioP1;P1;durP2;ratioP2;P2;SDS_P1;SDS_P2;PMS_P1;PMS_P2;Temp;Humidity;BMP_temperature;BMP_pressure;BME280_temperature;BME280_humidity;BME280_pressure;Samples;Min_cycle;Max_cycle;Signal;HPM_P1;HPM_P2
2024/04/05 00:00:09;;;;;;;84.28;35.60;;;;;;;;;;5036722;28;20094;-32
2024/04/05 00:02:36;;;;;;;78.05;36.83;;;;;;;;;;5034336;28;20087;-35
2024/04/05 00:05:03;;;;;;;84.55;36.58;;;;;;;;;;5034240;28;20094;-33
2024/04/05 00:07:30;;;;;;;76.80;36.03;;;;;;;;;;5032500;28;20454;-33
2024/04/05 00:09:57;;;;;;;82.15;35.53;;;;;;;;;;5032351;28;20041;-31
2024/04/05 00:12:24;;;;;;;75.28;35.25;;;;;;;;;;5032532;28;20036;-31
2024/04/05 00:14:51;;;;;;;74.05;34.85;;;;;;;;;;5037723;28;20407;-31
2024/04/05 00:17:18;;;;;;;75.43;34.25;;;;;;;;;;5043892;28;20072;-34
2024/04/05 00:19:45;;;;;;;71.85;32.60;;;;;;;;;;5049943;28;20040;-30
2024/04/05 00:22:12;;;;;;;67.50;32.70;;;;;;;;;;5043460;28;20021;-31
2024/04/05 00:24:39;;;;;;;65.18;31.67;;;;;;;;;;5031877;28;20479;-34
2024/04/05 00:27:07;;;;;;;67.88;32.30;;;;;;;;;;5027395;28;20045;-31
2024/04/05 00:29:36;;;;;;;74.10;31.77;;;;;;;;;;5025737;28;20040;-34
2024/04/05 00:32:03;;;;;;;71.65;31.70;;;;;;;;;;5031831;28;20546;-31
2024/04/05 00:34:30;;;;;;;71.38;31.13;;;;;;;;;;5031629;28;20025;-31
2024/04/05 00:36:57;;;;;;;70.50;30.70;;;;;;;;;;5030328;28;20087;-31
2024/04/05 00:39:24;;;;;;;65.90;30.00;;;;;;;;;;5030641;28;20026;-34
2024/04/05 00:41:52;;;;;;;69.55;29.55;;;;;;;;;;5031738;28;20488;-31
2024/04/05 00:44:19;;;;;;;69.00;30.83;;;;;;;;;;5030676;28;20069;-31
2024/04/05 00:46:46;;;;;;;68.20;29.85;;;;;;;;;;5031499;28;20115;-34
2024/04/05 00:49:13;;;;;;;68.40;29.75;;;;;;;;;;5029822;28;20029;-31
2024/04/05 00:51:40;;;;;;;63.92;28.45;;;;;;;;;;5031594;28;20029;-31
2024/04/05 00:54:08;;;;;;;57.95;29.30;;;;;;;;;;5019877;28;20033;-31
2024/04/05 00:56:35;;;;;;;72.03;29.13;;;;;;;;;;5029697;28;20103;-31
2024/04/05 00:59:02;;;;;;;64.55;27.77;;;;;;;;;;5018923;28;20025;-32
2024/04/05 01:01:29;;;;;;;68.10;27.85;;;;;;;;;;5031532;28;20112;-37
2024/04/05 01:03:56;;;;;;;80.85;28.83;;;;;;;;;;5031277;28;20365;-32
2024/04/05 01:06:23;;;;;;;72.05;30.13;;;;;;;;;;5031398;28;20037;-32
2024/04/05 01:08:51;;;;;;;63.17;29.17;;;;;;;;;;5031475;28;20075;-34
2024/04/05 01:11:18;;;;;;;65.28;28.85;;;;;;;;;;5031411;28;20030;-31
2024/04/05 01:13:47;;;;;;;67.95;26.88;;;;;;;;;;5022407;28;20029;-33
2024/04/05 01:16:14;;;;;;;63.47;27.27;;;;;;;;;;5022953;28;20488;-34
2024/04/05 01:18:43;;;;;;;63.05;27.55;;;;;;;;;;5020190;28;20026;-34
2024/04/05 01:21:11;;;;;;;61.40;25.42;;;;;;;;;;5015059;28;20446;-34
2024/04/05 01:23:44;;;;;;;67.15;25.75;;;;;;;;;;5026289;28;20037;-33
2024/04/05 01:26:11;;;;;;;64.10;25.95;;;;;;;;;;5025170;28;20086;-31
2024/04/05 01:28:38;;;;;;;69.07;25.27;;;;;;;;;;5025234;28;20481;-31
2024/04/05 01:31:05;;;;;;;63.92;24.73;;;;;;;;;;5025210;28;20159;-34
2024/04/05 01:33:32;;;;;;;71.07;24.90;;;;;;;;;;5027683;28;20455;-31
2024/04/05 01:35:59;;;;;;;60.95;24.75;;;;;;;;;;5014683;28;20500;-33
2024/04/05 01:38:26;;;;;;;54.28;24.73;;;;;;;;;;5012959;28;20720;-34
2024/04/05 01:40:53;;;;;;;66.15;25.17;;;;;;;;;;5013787;28;20053;-33
2024/04/05 01:43:20;;;;;;;50.78;22.08;;;;;;;;;;5029397;28;20040;-31
2024/04/05 01:45:47;;;;;;;58.65;26.00;;;;;;;;;;5029712;28;20057;-33
2024/04/05 01:48:14;;;;;;;54.17;24.55;;;;;;;;;;5030492;28;20036;-30
2024/04/05 01:50:42;;;;;;;59.65;25.67;;;;;;;;;;5030927;28;20033;-31
2024/04/05 01:53:09;;;;;;;49.92;24.50;;;;;;;;;;5021156;28;20480;-32
2024/04/05 01:55:36;;;;;;;53.83;23.30;;;;;;;;;;5027415;28;20519;-33
2024/04/05 01:58:03;;;;;;;53.35;24.27;;;;;;;;;;5025822;28;20025;-33
2024/04/05 02:00:31;;;;;;;54.50;24.25;;;;;;;;;;5027605;28;20037;-32
2024/04/05 02:02:58;;;;;;;50.30;21.65;;;;;;;;;;5034550;28;20025;-33
2024/04/05 02:05:25;;;;;;;53.72;23.25;;;;;;;;;;5029461;28;20022;-30
2024/04/05 02:07:52;;;;;;;51.33;23.77;;;;;;;;;;5025406;28;20095;-33
2024/04/05 02:10:19;;;;;;;47.70;23.08;;;;;;;;;;5033110;28;20083;-30
2024/04/05 02:12:49;;;;;;;48.83;22.23;;;;;;;;;;5034476;28;20032;-31
2024/04/05 02:15:16;;;;;;;46.45;22.65;;;;;;;;;;5034211;28;20033;-33
2024/04/05 02:17:47;;;;;;;56.63;23.27;;;;;;;;;;5034226;28;20075;-31
2024/04/05 02:20:14;;;;;;;46.15;22.50;;;;;;;;;;5027189;28;20030;-34
2024/04/05 02:22:42;;;;;;;50.67;21.92;;;;;;;;;;5025064;28;20554;-31
2024/04/05 02:25:11;;;;;;;43.20;23.08;;;;;;;;;;5033656;28;20021;-33
2024/04/05 02:27:38;;;;;;;50.58;21.40;;;;;;;;;;5031097;28;20033;-32
2024/04/05 02:30:06;;;;;;;54.20;22.92;;;;;;;;;;5021023;28;20083;-33
2024/04/05 02:32:33;;;;;;;48.75;22.13;;;;;;;;;;5033954;28;20045;-30
2024/04/05 02:35:00;;;;;;;42.05;20.83;;;;;;;;;;5034356;28;20029;-33
2024/04/05 02:37:27;;;;;;;49.97;22.52;;;;;;;;;;5032698;28;20132;-33
2024/04/05 02:39:54;;;;;;;43.38;21.08;;;;;;;;;;5034441;28;20017;-34
2024/04/05 02:42:21;;;;;;;45.65;20.67;;;;;;;;;;5033731;28;20121;-30
2024/04/05 02:44:48;;;;;;;40.50;20.60;;;;;;;;;;5033087;28;20075;-31
2024/04/05 02:47:15;;;;;;;47.30;20.27;;;;;;;;;;5033650;28;20029;-33
2024/04/05 02:49:42;;;;;;;39.60;18.95;;;;;;;;;;5033561;28;20480;-31
2024/04/05 02:52:09;;;;;;;42.85;18.20;;;;;;;;;;5033597;28;20083;-33
2024/04/05 02:54:36;;;;;;;41.85;18.27;;;;;;;;;;5033564;28;20017;-33
2024/04/05 02:57:03;;;;;;;46.13;18.92;;;;;;;;;;5033937;28;20037;-31
2024/04/05 02:59:30;;;;;;;44.00;18.45;;;;;;;;;;5032752;28;20028;-33
2024/04/05 03:01:57;;;;;;;38.50;18.27;;;;;;;;;;5033350;28;20091;-31
2024/04/05 03:04:24;;;;;;;44.17;18.45;;;;;;;;;;5031871;28;20037;-33
2024/04/05 03:06:51;;;;;;;52.47;18.58;;;;;;;;;;5030819;28;20029;-30
2024/04/05 03:09:18;;;;;;;39.45;17.50;;;;;;;;;;5033289;28;20033;-30
2024/04/05 03:11:45;;;;;;;34.08;17.15;;;;;;;;;;5033216;28;20116;-31
2024/04/05 03:14:12;;;;;;;35.47;16.58;;;;;;;;;;5030618;28;20032;-33
2024/04/05 03:16:39;;;;;;;35.70;17.05;;;;;;;;;;5033180;28;20103;-30
2024/04/05 03:19:06;;;;;;;37.15;17.85;;;;;;;;;;5033127;28;20034;-31
2024/04/05 03:21:33;;;;;;;34.50;17.92;;;;;;;;;;5033086;28;20052;-33
2024/04/05 03:24:00;;;;;;;35.05;16.40;;;;;;;;;;5031424;28;20584;-33
2024/04/05 03:26:27;;;;;;;32.15;16.20;;;;;;;;;;5032948;28;20022;-31
2024/04/05 03:28:55;;;;;;;36.88;16.75;;;;;;;;;;5032724;28;20021;-31
2024/04/05 03:31:23;;;;;;;34.45;15.68;;;;;;;;;;5032974;28;20059;-33
2024/04/05 03:33:50;;;;;;;31.50;16.48;;;;;;;;;;5032228;28;20077;-31
2024/04/05 03:36:17;;;;;;;37.83;16.77;;;;;;;;;;5032816;28;20403;-31
2024/04/05 03:38:44;;;;;;;32.35;16.13;;;;;;;;;;5032649;28;20455;-31
2024/04/05 03:41:11;;;;;;;28.95;15.00;;;;;;;;;;5032405;28;20072;-33
2024/04/05 03:43:38;;;;;;;34.90;16.45;;;;;;;;;;5032428;28;20037;-30
2024/04/05 03:46:06;;;;;;;31.02;15.05;;;;;;;;;;5029957;28;20031;-32
2024/04/05 03:48:33;;;;;;;33.28;16.05;;;;;;;;;;5032645;28;20025;-33
2024/04/05 03:51:00;;;;;;;33.25;15.45;;;;;;;;;;5032584;28;20479;-31
2024/04/05 03:53:27;;;;;;;26.75;14.73;;;;;;;;;;5029810;28;20060;-31
2024/04/05 03:55:57;;;;;;;29.33;16.13;;;;;;;;;;5032413;28;20786;-31
2024/04/05 03:58:24;;;;;;;31.58;15.65;;;;;;;;;;5030918;28;20034;-33
2024/04/05 04:00:52;;;;;;;29.45;15.38;;;;;;;;;;5031838;28;20167;-33
2024/04/05 04:03:19;;;;;;;29.23;15.27;;;;;;;;;;5032128;28;20095;-31
2024/04/05 04:05:46;;;;;;;29.73;15.50;;;;;;;;;;5032198;28;20026;-34
2024/04/05 04:08:13;;;;;;;31.15;14.35;;;;;;;;;;5032169;28;20053;-33
2024/04/05 04:10:42;;;;;;;31.45;14.95;;;;;;;;;;5032251;28;20434;-33
2024/04/05 04:13:09;;;;;;;31.17;14.55;;;;;;;;;;5032201;28;20488;-33
2024/04/05 04:15:36;;;;;;;30.58;14.75;;;;;;;;;;5032497;28;20022;-33
2024/04/05 04:18:03;;;;;;;32.30;13.75;;;;;;;;;;5032299;28;20029;-33
2024/04/05 04:20:31;;;;;;;32.03;14.65;;;;;;;;;;5032313;28;20412;-33
2024/04/05 04:22:58;;;;;;;29.00;14.10;;;;;;;;;;5032150;28;20125;-33
2024/04/05 04:25:25;;;;;;;33.97;14.75;;;;;;;;;;5032124;28;20531;-32
2024/04/05 04:27:52;;;;;;;28.52;14.10;;;;;;;;;;5032289;28;20029;-32
2024/04/05 04:30:19;;;;;;;29.40;14.48;;;;;;;;;;5031946;28;20036;-32
2024/04/05 04:32:47;;;;;;;29.65;13.73;;;;;;;;;;5031858;28;20048;-33
2024/04/05 04:35:14;;;;;;;27.52;13.20;;;;;;;;;;5031642;28;20400;-33
2024/04/05 04:37:41;;;;;;;27.75;12.95;;;;;;;;;;5032013;28;20029;-33
2024/04/05 04:40:11;;;;;;;28.70;14.30;;;;;;;;;;5031975;28;20496;-33
2024/04/05 04:42:41;;;;;;;26.40;13.65;;;;;;;;;;5031560;28;20076;-34
2024/04/05 04:45:08;;;;;;;29.77;13.27;;;;;;;;;;5031947;28;20447;-33
2024/04/05 04:47:35;;;;;;;26.40;14.23;;;;;;;;;;5030460;28;20036;-33
2024/04/05 04:50:04;;;;;;;28.08;14.23;;;;;;;;;;5031796;28;20104;-33
2024/04/05 04:52:31;;;;;;;26.58;13.35;;;;;;;;;;5031778;28;20056;-33
2024/04/05 04:54:58;;;;;;;23.40;12.93;;;;;;;;;;5031892;28;20454;-33
2024/04/05 04:57:25;;;;;;;27.58;13.48;;;;;;;;;;5031671;28;20122;-33
2024/04/05 04:59:52;;;;;;;28.13;13.80;;;;;;;;;;5031803;28;20095;-33
2024/04/05 05:02:19;;;;;;;21.65;13.20;;;;;;;;;;5031569;28;20484;-33
2024/04/05 05:04:47;;;;;;;21.23;12.52;;;;;;;;;;5031368;28;20046;-33
2024/04/05 05:07:14;;;;;;;29.65;12.73;;;;;;;;;;5031577;28;20112;-33
2024/04/05 05:09:41;;;;;;;27.48;13.82;;;;;;;;;;5031576;28;20034;-33
2024/04/05 05:12:08;;;;;;;22.88;12.48;;;;;;;;;;5031501;28;20025;-33
2024/04/05 05:14:35;;;;;;;23.55;12.55;;;;;;;;;;5031571;28;20041;-33
2024/04/05 05:17:04;;;;;;;20.55;12.10;;;;;;;;;;5031367;28;20488;-33
2024/04/05 05:19:31;;;;;;;27.95;13.13;;;;;;;;;;5031399;28;20029;-33
2024/04/05 05:21:58;;;;;;;23.60;12.52;;;;;;;;;;5031451;28;20022;-33
2024/04/05 05:24:25;;;;;;;21.60;12.25;;;;;;;;;;5031517;28;20041;-33
2024/04/05 05:26:52;;;;;;;20.95;11.95;;;;;;;;;;5031495;28;20450;-33
2024/04/05 05:29:20;;;;;;;25.38;12.73;;;;;;;;;;5031351;28;20109;-33
2024/04/05 05:31:46;;;;;;;21.08;11.82;;;;;;;;;;5031323;28;20468;-33
2024/04/05 05:34:13;;;;;;;21.40;11.98;;;;;;;;;;5031086;28;20041;-34
2024/04/05 05:36:40;;;;;;;22.65;12.38;;;;;;;;;;5033708;28;20108;-33
2024/04/05 05:39:07;;;;;;;18.88;11.18;;;;;;;;;;5035505;28;20053;-33
2024/04/05 05:41:34;;;;;;;20.88;11.38;;;;;;;;;;5035418;28;20029;-34
2024/04/05 05:44:01;;;;;;;23.65;11.65;;;;;;;;;;5035098;28;20108;-33
2024/04/05 05:46:28;;;;;;;20.23;12.13;;;;;;;;;;5035320;28;20017;-33
2024/04/05 05:48:55;;;;;;;21.48;12.23;;;;;;;;;;5035292;28;20037;-33
2024/04/05 05:51:22;;;;;;;23.63;11.73;;;;;;;;;;5035196;28;20025;-33
2024/04/05 05:53:49;;;;;;;20.65;11.88;;;;;;;;;;5035134;28;20033;-33
2024/04/05 05:56:16;;;;;;;20.58;10.77;;;;;;;;;;5035145;28;20392;-33
2024/04/05 05:58:43;;;;;;;19.77;11.18;;;;;;;;;;5034954;28;20080;-31
2024/04/05 06:01:11;;;;;;;21.38;11.50;;;;;;;;;;5038216;28;20486;-31
2024/04/05 06:03:38;;;;;;;20.50;11.30;;;;;;;;;;5054844;28;20052;-31
2024/04/05 06:06:07;;;;;;;21.05;11.45;;;;;;;;;;5054706;28;20060;-31
2024/04/05 06:08:36;;;;;;;18.95;11.18;;;;;;;;;;5054811;28;20407;-31
2024/04/05 06:11:03;;;;;;;23.88;11.85;;;;;;;;;;5054850;28;20025;-30
2024/04/05 06:13:30;;;;;;;16.98;11.02;;;;;;;;;;5054725;28;20029;-31
2024/04/05 06:15:58;;;;;;;17.80;11.02;;;;;;;;;;5054776;28;20104;-32
2024/04/05 06:18:27;;;;;;;17.33;11.07;;;;;;;;;;5054730;28;20361;-31
2024/04/05 06:20:55;;;;;;;17.40;11.05;;;;;;;;;;5054499;28;20656;-31
2024/04/05 06:23:23;;;;;;;20.15;11.80;;;;;;;;;;5054219;28;20123;-30
2024/04/05 06:25:53;;;;;;;21.08;11.23;;;;;;;;;;5054377;28;20044;-30
2024/04/05 06:28:20;;;;;;;24.58;11.20;;;;;;;;;;5054546;28;20483;-30
2024/04/05 06:30:47;;;;;;;21.38;10.60;;;;;;;;;;5054394;28;20056;-31
2024/04/05 06:33:14;;;;;;;18.17;10.35;;;;;;;;;;5054127;28;20037;-31
2024/04/05 06:35:42;;;;;;;19.70;11.32;;;;;;;;;;5054277;28;20052;-30
2024/04/05 06:38:09;;;;;;;16.92;10.38;;;;;;;;;;5054379;28;20071;-31
2024/04/05 06:40:39;;;;;;;20.45;11.55;;;;;;;;;;5054320;28;20056;-31
2024/04/05 06:43:08;;;;;;;17.15;10.35;;;;;;;;;;5054182;28;20377;-31
2024/04/05 06:45:35;;;;;;;18.25;10.70;;;;;;;;;;5053847;28;20029;-31
2024/04/05 06:48:02;;;;;;;17.65;10.43;;;;;;;;;;5053693;28;20025;-31
2024/04/05 06:50:32;;;;;;;16.25;11.00;;;;;;;;;;5054121;28;20399;-31
2024/04/05 06:52:59;;;;;;;19.23;10.70;;;;;;;;;;5053804;28;20048;-31
2024/04/05 06:55:26;;;;;;;17.02;10.48;;;;;;;;;;5053999;28;20524;-32
2024/04/05 06:57:54;;;;;;;17.85;10.73;;;;;;;;;;5053907;28;20032;-32
2024/04/05 07:00:21;;;;;;;17.45;10.80;;;;;;;;;;5053787;28;20039;-31
2024/04/05 07:02:48;;;;;;;15.43;9.93;;;;;;;;;;5053654;28;20515;-31
2024/04/05 07:05:15;;;;;;;14.98;9.77;;;;;;;;;;5053856;28;20073;-30
2024/04/05 07:07:42;;;;;;;17.90;9.55;;;;;;;;;;5053848;28;20033;-31
2024/04/05 07:10:09;;;;;;;19.60;10.77;;;;;;;;;;5053712;28;20040;-31
2024/04/05 07:12:36;;;;;;;15.65;10.02;;;;;;;;;;5053574;28;20037;-30
2024/04/05 07:15:05;;;;;;;16.35;9.93;;;;;;;;;;5053617;28;20100;-30
2024/04/05 07:17:32;;;;;;;13.43;9.60;;;;;;;;;;5035578;28;20135;-30
2024/04/05 07:19:59;;;;;;;14.68;10.10;;;;;;;;;;5053525;28;20029;-31
2024/04/05 07:22:27;;;;;;;14.52;10.02;;;;;;;;;;5053186;28;20043;-31
2024/04/05 07:24:54;;;;;;;15.38;9.68;;;;;;;;;;5053527;28;20033;-30
2024/04/05 07:27:22;;;;;;;18.33;10.25;;;;;;;;;;5053454;28;20029;-30
2024/04/05 07:29:49;;;;;;;17.35;9.90;;;;;;;;;;5053266;28;20033;-31
2024/04/05 07:32:16;;;;;;;15.18;9.30;;;;;;;;;;5053123;28;20047;-30
2024/04/05 07:34:43;;;;;;;15.07;9.63;;;;;;;;;;5053117;28;20056;-31
2024/04/05 07:37:12;;;;;;;17.40;9.40;;;;;;;;;;5053273;28;20021;-31
2024/04/05 07:39:39;;;;;;;16.45;9.40;;;;;;;;;;5053143;28;20562;-31
2024/04/05 07:42:06;;;;;;;15.27;9.35;;;;;;;;;;5053123;28;20021;-31
2024/04/05 07:44:33;;;;;;;14.65;9.40;;;;;;;;;;5053066;28;20080;-32
2024/04/05 07:47:03;;;;;;;14.45;9.43;;;;;;;;;;5043117;28;20044;-30
2024/04/05 07:49:30;;;;;;;16.20;9.60;;;;;;;;;;5033072;28;20412;-30
2024/04/05 07:51:57;;;;;;;16.20;8.93;;;;;;;;;;5032928;28;20025;-30
2024/04/05 07:54:25;;;;;;;12.43;8.75;;;;;;;;;;5032939;28;20111;-31
2024/04/05 07:56:55;;;;;;;15.73;8.60;;;;;;;;;;5032867;28;20116;-30
2024/04/05 07:59:22;;;;;;;14.65;9.18;;;;;;;;;;5032055;28;20440;-31
2024/04/05 08:01:49;;;;;;;12.35;8.93;;;;;;;;;;5032710;28;20052;-31
2024/04/05 08:04:16;;;;;;;13.65;8.75;;;;;;;;;;5032789;28;20033;-31
2024/04/05 08:06:43;;;;;;;13.40;8.65;;;;;;;;;;5032764;28;20041;-30
2024/04/05 08:09:11;;;;;;;12.18;8.48;;;;;;;;;;5032702;28;20180;-31
2024/04/05 08:11:38;;;;;;;13.32;8.85;;;;;;;;;;5032518;28;20033;-31
2024/04/05 08:14:05;;;;;;;14.07;8.48;;;;;;;;;;5032568;28;20025;-31
2024/04/05 08:16:32;;;;;;;13.30;8.00;;;;;;;;;;5032533;28;20029;-31
2024/04/05 08:18:59;;;;;;;13.45;8.77;;;;;;;;;;5032788;28;20044;-31
2024/04/05 08:21:26;;;;;;;13.75;8.60;;;;;;;;;;5032355;28;20430;-31
2024/04/05 08:23:53;;;;;;;13.15;8.45;;;;;;;;;;5032393;28;20112;-32
2024/04/05 08:26:20;;;;;;;15.45;8.43;;;;;;;;;;5032343;28;20025;-31
2024/04/05 08:28:47;;;;;;;11.10;7.97;;;;;;;;;;5032393;28;20040;-31
2024/04/05 08:31:14;;;;;;;14.85;8.70;;;;;;;;;;5031080;28;20120;-31
2024/04/05 08:33:41;;;;;;;15.52;8.43;;;;;;;;;;5032114;28;20033;-30
2024/04/05 08:36:09;;;;;;;10.98;7.68;;;;;;;;;;5032052;28;20049;-31
2024/04/05 08:38:36;;;;;;;11.27;7.47;;;;;;;;;;5032108;28;20037;-31
2024/04/05 08:41:09;;;;;;;13.40;8.15;;;;;;;;;;5031995;28;20391;-30
2024/04/05 08:43:42;;;;;;;12.98;8.25;;;;;;;;;;5031931;28;20033;-31
2024/04/05 08:46:10;;;;;;;13.88;8.18;;;;;;;;;;5032032;28;20041;-30
2024/04/05 08:48:37;;;;;;;11.25;7.88;;;;;;;;;;5032054;28;20040;-30
2024/04/05 08:51:05;;;;;;;13.93;7.95;;;;;;;;;;5031866;28;20022;-31
2024/04/05 08:53:32;;;;;;;11.38;7.80;;;;;;;;;;5031906;28;20052;-30
2024/04/05 08:56:03;;;;;;;13.13;7.50;;;;;;;;;;5031898;28;20033;-31
2024/04/05 08:58:30;;;;;;;11.65;7.70;;;;;;;;;;5028995;28;20124;-31
2024/04/05 09:00:58;;;;;;;11.48;8.00;;;;;;;;;;5031820;28;20503;-32
2024/04/05 09:03:25;;;;;;;10.65;7.18;;;;;;;;;;5031419;28;20037;-31
2024/04/05 09:05:52;;;;;;;14.50;7.22;;;;;;;;;;5031777;28;20084;-31
2024/04/05 09:08:19;;;;;;;11.18;7.03;;;;;;;;;;5031767;28;20029;-31
2024/04/05 09:10:53;;;;;;;12.73;7.57;;;;;;;;;;5031553;28;20036;-31
2024/04/05 09:13:23;;;;;;;10.95;7.25;;;;;;;;;;5030464;28;20111;-32
2024/04/05 09:15:53;;;;;;;12.52;7.55;;;;;;;;;;5031465;28;20040;-30
2024/04/05 09:18:27;;;;;;;12.88;7.57;;;;;;;;;;5031532;28;20056;-31
2024/04/05 09:20:55;;;;;;;11.00;7.28;;;;;;;;;;5031386;28;20087;-33
2024/04/05 09:23:22;;;;;;;10.65;7.15;;;;;;;;;;5031206;28;20033;-33
2024/04/05 09:26:09;;;;;;;11.65;7.20;;;;;;;;;;5030624;28;20037;-32
2024/04/05 09:28:36;;;;;;;9.88;6.88;;;;;;;;;;5031495;28;20455;-33
2024/04/05 09:31:03;;;;;;;12.80;7.35;;;;;;;;;;5030410;28;20091;-30
2024/04/05 09:33:30;;;;;;;10.25;6.68;;;;;;;;;;5030649;28;20033;-33
2024/04/05 09:35:59;;;;;;;11.00;7.03;;;;;;;;;;5030580;28;20049;-33
2024/04/05 09:41:43;;;;;;;11.48;6.30;;;;;;;;;;5031427;28;20103;-31
2024/04/05 09:47:27;;;;;;;9.68;6.70;;;;;;;;;;5031815;28;20388;-33
2024/04/05 09:49:54;;;;;;;8.35;6.55;;;;;;;;;;5030862;28;20034;-33
2024/04/05 09:52:24;;;;;;;10.80;6.35;;;;;;;;;;5031039;28;20029;-34
2024/04/05 09:54:59;;;;;;;10.60;6.68;;;;;;;;;;5030489;28;20061;-30
2024/04/05 09:57:26;;;;;;;9.60;6.15;;;;;;;;;;5030077;28;20527;-30
2024/04/05 09:59:54;;;;;;;10.77;6.00;;;;;;;;;;5031306;28;20049;-30
2024/04/05 10:02:21;;;;;;;10.82;6.05;;;;;;;;;;5031158;28;20032;-30
2024/04/05 10:04:48;;;;;;;11.02;6.20;;;;;;;;;;5031214;28;20121;-33
2024/04/05 10:07:15;;;;;;;9.30;5.45;;;;;;;;;;5031211;28;20762;-33
2024/04/05 10:09:43;;;;;;;12.55;5.80;;;;;;;;;;5031144;28;20104;-33
2024/04/05 10:12:17;;;;;;;12.05;6.78;;;;;;;;;;5030938;28;20030;-33
2024/04/05 10:14:53;;;;;;;12.32;6.00;;;;;;;;;;5031050;28;20506;-33
2024/04/05 10:17:27;;;;;;;11.27;6.25;;;;;;;;;;5031196;28;20028;-34
2024/04/05 10:20:03;;;;;;;11.15;6.97;;;;;;;;;;5030237;28;20029;-30
2024/04/05 10:22:31;;;;;;;11.07;6.30;;;;;;;;;;5030450;28;20040;-32
2024/04/05 10:24:58;;;;;;;9.23;6.25;;;;;;;;;;5034197;28;20056;-30
2024/04/05 10:27:25;;;;;;;12.73;6.05;;;;;;;;;;5034210;28;20033;-32
2024/04/05 10:30:08;;;;;;;12.55;6.25;;;;;;;;;;5027948;28;20128;-30
2024/04/05 10:32:36;;;;;;;11.63;6.05;;;;;;;;;;5032033;28;20017;-33
2024/04/05 10:35:07;;;;;;;11.65;6.10;;;;;;;;;;5031632;28;20045;-33
2024/04/05 10:37:39;;;;;;;18.10;6.72;;;;;;;;;;5033225;28;20064;-32
2024/04/05 10:40:12;;;;;;;16.60;6.20;;;;;;;;;;5029965;28;20064;-31
2024/04/05 10:42:43;;;;;;;11.02;5.97;;;;;;;;;;5032902;28;20512;-30
2024/04/05 10:45:12;;;;;;;13.05;5.80;;;;;;;;;;5032343;28;20116;-32
2024/04/05 10:47:39;;;;;;;11.25;5.78;;;;;;;;;;5033572;28;20115;-32
2024/04/05 10:50:06;;;;;;;13.02;6.07;;;;;;;;;;5031814;28;20023;-30
2024/04/05 10:52:36;;;;;;;16.10;5.88;;;;;;;;;;5032501;28;20036;-32
2024/04/05 10:55:10;;;;;;;13.45;5.85;;;;;;;;;;5036639;28;20549;-30
2024/04/05 10:57:37;;;;;;;16.67;5.95;;;;;;;;;;5053114;28;20043;-30
2024/04/05 11:00:05;;;;;;;14.55;6.10;;;;;;;;;;5033074;28;20030;-30
2024/04/05 11:02:32;;;;;;;18.00;5.72;;;;;;;;;;5030666;28;20064;-30
2024/04/05 11:05:06;;;;;;;20.02;6.72;;;;;;;;;;5031360;28;20057;-30
2024/04/05 11:07:34;;;;;;;16.27;6.28;;;;;;;;;;5032743;28;20041;-30
2024/04/05 11:10:01;;;;;;;20.77;5.90;;;;;;;;;;5032876;28;20030;-32
2024/04/05 11:12:28;;;;;;;16.92;5.90;;;;;;;;;;5030472;28;20029;-33
2024/04/05 11:15:04;;;;;;;14.05;5.85;;;;;;;;;;5032459;28;20029;-30
2024/04/05 11:17:31;;;;;;;25.00;7.07;;;;;;;;;;5032170;28;20029;-30
2024/04/05 11:20:14;;;;;;;66.53;10.77;;;;;;;;;;5033017;28;20030;-30
2024/04/05 11:22:41;;;;;;;54.47;9.48;;;;;;;;;;5031592;28;20038;-30
2024/04/05 11:25:09;;;;;;;34.60;7.38;;;;;;;;;;5033082;28;20411;-30
2024/04/05 11:27:36;;;;;;;53.92;8.80;;;;;;;;;;5014590;28;20037;-30
2024/04/05 11:30:08;;;;;;;48.28;8.38;;;;;;;;;;5032636;28;20116;-31
2024/04/05 11:32:40;;;;;;;121.07;12.70;;;;;;;;;;5031577;28;20510;-29
2024/04/05 11:35:07;;;;;;;29.13;7.22;;;;;;;;;;5039144;28;20056;-28
2024/04/05 11:37:34;;;;;;;252.55;18.63;;;;;;;;;;5032399;28;20388;-45
2024/04/05 11:40:01;;;;;;;69.38;9.38;;;;;;;;;;5032567;28;20021;-45
2024/04/05 11:42:28;;;;;;;52.05;8.98;;;;;;;;;;5047474;28;20030;-49
2024/04/05 11:44:55;;;;;;;368.65;29.98;;;;;;;;;;5050445;28;20044;-45
2024/04/05 11:47:22;;;;;;;398.83;35.20;;;;;;;;;;5050826;28;20544;-43
2024/04/05 11:49:49;;;;;;;291.85;28.88;;;;;;;;;;5051219;28;20041;-45
2024/04/05 11:52:16;;;;;;;276.30;27.83;;;;;;;;;;5051514;28;20083;-44
2024/04/05 11:54:43;;;;;;;228.90;24.05;;;;;;;;;;5050863;28;20091;-44
2024/04/05 11:57:14;;;;;;;191.63;23.77;;;;;;;;;;5052147;28;20032;-43
2024/04/05 11:59:46;;;;;;;174.98;21.02;;;;;;;;;;5047525;28;20133;-43
2024/04/05 12:02:13;;;;;;;166.70;21.17;;;;;;;;;;5039425;28;20033;-43
2024/04/05 12:04:40;;;;;;;164.18;21.00;;;;;;;;;;5050316;28;20368;-45
2024/04/05 12:07:09;;;;;;;133.93;17.92;;;;;;;;;;5051253;28;20057;-45
2024/04/05 12:09:37;;;;;;;108.05;17.05;;;;;;;;;;5050308;28;20545;-42
2024/04/05 12:12:05;;;;;;;81.75;12.90;;;;;;;;;;5047996;28;20740;-46
2024/04/05 12:14:35;;;;;;;60.33;10.75;;;;;;;;;;5046244;28;20021;-44
2024/04/05 12:17:03;;;;;;;60.53;9.18;;;;;;;;;;5049468;28;20036;-44
2024/04/05 12:19:30;;;;;;;51.08;7.55;;;;;;;;;;5051520;28;20121;-47
2024/04/05 12:21:57;;;;;;;40.58;6.43;;;;;;;;;;5051560;28;20085;-47
2024/04/05 12:24:24;;;;;;;44.45;6.68;;;;;;;;;;5051297;28;20029;-43
2024/04/05 12:26:52;;;;;;;33.70;5.20;;;;;;;;;;5049633;28;20021;-46
2024/04/05 12:29:19;;;;;;;25.83;3.97;;;;;;;;;;5051046;28;20040;-45
2024/04/05 12:31:46;;;;;;;23.88;4.85;;;;;;;;;;5050755;28;20029;-44
2024/04/05 12:34:13;;;;;;;29.77;3.70;;;;;;;;;;5051313;28;20095;-45
2024/04/05 12:36:40;;;;;;;23.05;3.75;;;;;;;;;;5050161;28;20032;-44
2024/04/05 12:39:16;;;;;;;23.85;4.43;;;;;;;;;;5051421;28;20033;-44
2024/04/05 12:41:44;;;;;;;27.45;4.43;;;;;;;;;;5051367;28;20028;-45
2024/04/05 12:44:12;;;;;;;27.92;5.35;;;;;;;;;;5050209;28;20040;-46
2024/04/05 12:46:39;;;;;;;37.60;4.18;;;;;;;;;;5036228;28;20440;-43
2024/04/05 12:49:06;;;;;;;25.70;3.60;;;;;;;;;;5031913;28;20029;-43
2024/04/05 12:51:33;;;;;;;21.13;3.05;;;;;;;;;;5031895;28;20029;-45
2024/04/05 12:54:00;;;;;;;128.40;9.75;;;;;;;;;;5046135;28;20056;-44
2024/04/05 12:56:29;;;;;;;35.95;3.75;;;;;;;;;;5039519;28;20449;-52
2024/04/05 12:58:56;;;;;;;23.30;3.45;;;;;;;;;;5039024;28;20040;-44
2024/04/05 13:01:23;;;;;;;20.83;2.80;;;;;;;;;;5048918;28;20036;-43
2024/04/05 13:03:50;;;;;;;15.18;2.28;;;;;;;;;;5049818;28;20509;-45
2024/04/05 13:06:20;;;;;;;13.68;2.35;;;;;;;;;;5051065;28;20387;-46
2024/04/05 13:08:47;;;;;;;20.40;2.55;;;;;;;;;;5051177;28;20131;-43
2024/04/05 13:11:15;;;;;;;81.22;7.40;;;;;;;;;;5050965;28;20457;-45
2024/04/05 13:13:44;;;;;;;28.13;3.65;;;;;;;;;;5051067;28;20139;-44
2024/04/05 13:16:11;;;;;;;13.15;2.13;;;;;;;;;;5050951;28;20033;-44
2024/04/05 13:18:38;;;;;;;23.15;2.72;;;;;;;;;;5050971;28;20039;-44
2024/04/05 13:21:06;;;;;;;14.45;2.03;;;;;;;;;;5050905;28;20387;-44
2024/04/05 13:23:37;;;;;;;13.98;1.98;;;;;;;;;;5050865;28;20033;-45
2024/04/05 13:26:22;;;;;;;17.58;2.05;;;;;;;;;;5046798;28;20065;-44
2024/04/05 13:28:50;;;;;;;13.27;1.77;;;;;;;;;;5048408;28;20056;-44
2024/04/05 13:31:17;;;;;;;14.23;1.77;;;;;;;;;;5051356;28;20033;-46
2024/04/05 13:33:45;;;;;;;11.48;1.67;;;;;;;;;;5051431;28;20033;-45
2024/04/05 13:36:13;;;;;;;12.13;2.03;;;;;;;;;;5051170;28;20091;-46
2024/04/05 13:38:40;;;;;;;15.40;1.58;;;;;;;;;;5051159;28;20048;-45
2024/04/05 13:41:07;;;;;;;17.58;2.28;;;;;;;;;;5050952;28;20072;-43
2024/04/05 13:43:35;;;;;;;20.60;2.22;;;;;;;;;;5051186;28;20033;-44
2024/04/05 13:46:18;;;;;;;11.43;1.42;;;;;;;;;;5051248;28;20028;-45
2024/04/05 13:48:48;;;;;;;10.90;1.50;;;;;;;;;;5051266;28;20033;-45
2024/04/05 13:51:20;;;;;;;12.85;1.42;;;;;;;;;;5051211;28;20375;-45
2024/04/05 13:53:47;;;;;;;8.32;1.20;;;;;;;;;;5051149;28;20037;-45
2024/04/05 13:56:15;;;;;;;12.27;1.50;;;;;;;;;;5051235;28;20108;-46
2024/04/05 13:58:42;;;;;;;11.23;1.42;;;;;;;;;;5053876;28;20474;-45
2024/04/05 14:01:09;;;;;;;5.55;1.35;;;;;;;;;;5055102;28;20040;-45
2024/04/05 14:03:36;;;;;;;12.00;1.50;;;;;;;;;;5053755;28;20056;-45
2024/04/05 14:06:04;;;;;;;16.02;1.58;;;;;;;;;;5055068;28;20059;-45
2024/04/05 14:08:31;;;;;;;19.15;1.80;;;;;;;;;;5054762;28;20098;-46
2024/04/05 14:10:58;;;;;;;23.70;2.10;;;;;;;;;;5049157;28;20491;-47
2024/04/05 14:13:26;;;;;;;17.35;1.88;;;;;;;;;;5053922;28;20032;-43
2024/04/05 14:16:04;;;;;;;22.73;2.15;;;;;;;;;;5054778;28;20037;-48
2024/04/05 14:18:31;;;;;;;19.85;2.17;;;;;;;;;;5054706;28;20036;-46
2024/04/05 14:20:58;;;;;;;20.48;2.08;;;;;;;;;;5053880;28;20462;-43
2024/04/05 14:23:25;;;;;;;19.73;1.88;;;;;;;;;;5054288;28;20445;-45
2024/04/05 14:25:57;;;;;;;14.20;1.80;;;;;;;;;;5054462;28;20025;-43
2024/04/05 14:28:24;;;;;;;19.30;2.20;;;;;;;;;;5053905;28;20037;-45
2024/04/05 14:30:55;;;;;;;16.80;2.00;;;;;;;;;;5048992;28;20065;-43
2024/04/05 14:33:23;;;;;;;12.82;1.80;;;;;;;;;;5054049;28;20021;-43